Time;durP1;ratioP1;P1;durP2;ratioP2;P2;SDS_P1;SDS_P2;PMS_P1;PMS_P2;Temp;Humidity;BMP_temperature;BMP_pressure;BME280_temperature;BME280_humidity;BME280_pressure;Samples;Min_cycle;Max_cycle;Signal;HPM_P1;HPM_P2
2022/11/10 00:00:30;;;;;;;8.25;2.80;;;;;;;10.63;85.41;100962.50;7395791;19;20078;-70
2022/11/10 00:03:03;;;;;;;4.68;2.25;;;;;;;10.60;85.55;100967.78;7395725;19;20078;-70
2022/11/10 00:05:34;;;;;;;3.47;2.00;;;;;;;10.54;85.44;100958.28;7396312;19;20033;-70
2022/11/10 00:08:05;;;;;;;3.63;2.03;;;;;;;10.53;85.56;100961.78;7394453;19;20031;-72
2022/11/10 00:10:55;;;;;;;4.47;2.42;;;;;;;10.52;85.56;100972.31;7395472;19;20035;-70
2022/11/10 00:13:22;;;;;;;6.05;2.55;;;;;;;10.47;85.60;100980.25;7394752;19;20018;-70
2022/11/10 00:18:32;;;;;;;4.30;1.98;;;;;;;10.40;85.92;100983.88;7392764;19;20019;-71
2022/11/10 00:21:08;;;;;;;4.35;1.88;;;;;;;10.36;86.27;100990.06;7394494;19;20089;-70
2022/11/10 00:23:36;;;;;;;3.85;2.13;;;;;;;10.34;86.30;100997.09;7395050;19;20094;-70
2022/11/10 00:26:05;;;;;;;4.07;1.73;;;;;;;10.32;86.36;100996.25;7395301;19;20070;-71
2022/11/10 00:28:34;;;;;;;5.90;2.53;;;;;;;10.26;86.49;100991.94;7394824;19;20559;-71
2022/11/10 00:31:07;;;;;;;5.32;2.38;;;;;;;10.28;86.59;101004.13;7393533;19;20022;-70
2022/11/10 00:33:36;;;;;;;5.65;2.10;;;;;;;10.30;86.50;101003.25;7394264;19;20382;-70
2022/11/10 00:36:08;;;;;;;7.15;1.83;;;;;;;10.28;86.44;101001.53;7394674;19;20018;-70
2022/11/10 00:38:37;;;;;;;4.20;1.80;;;;;;;10.28;86.38;101006.75;7393510;19;20031;-70
2022/11/10 00:41:06;;;;;;;4.65;1.98;;;;;;;10.30;86.60;101014.63;7394436;19;20423;-71
2022/11/10 00:43:34;;;;;;;5.00;1.70;;;;;;;10.29;86.52;101012.88;7394075;19;20429;-70
2022/11/10 00:46:03;;;;;;;4.70;1.90;;;;;;;10.30;86.42;101011.13;7394832;19;20070;-70
2022/11/10 00:48:31;;;;;;;4.80;2.10;;;;;;;10.30;86.23;101008.50;7394253;19;20424;-70
2022/11/10 00:51:00;;;;;;;4.13;1.70;;;;;;;10.30;86.06;101012.00;7392439;19;20028;-70
2022/11/10 00:53:31;;;;;;;3.92;2.17;;;;;;;10.32;85.90;101014.59;7392686;19;20082;-70
2022/11/10 00:55:59;;;;;;;5.32;1.90;;;;;;;10.31;85.59;101018.97;7394691;19;20083;-70
2022/11/10 00:58:28;;;;;;;5.03;2.08;;;;;;;10.32;85.38;101025.09;7393000;19;20078;-71
2022/11/10 01:01:02;;;;;;;5.03;1.70;;;;;;;10.35;84.75;101032.88;7392036;19;20544;-71
2022/11/10 01:03:31;;;;;;;6.38;1.60;;;;;;;10.36;84.58;101027.69;7391857;19;20015;-71
2022/11/10 01:05:59;;;;;;;5.53;1.60;;;;;;;10.38;84.42;101030.28;7394244;19;20086;-70
2022/11/10 01:08:30;;;;;;;4.80;1.55;;;;;;;10.40;83.99;101034.59;7394208;19;20066;-70
2022/11/10 01:11:03;;;;;;;6.15;1.73;;;;;;;10.41;83.56;101038.06;7394665;19;20022;-70
2022/11/10 01:13:33;;;;;;;3.70;1.48;;;;;;;10.42;83.11;101037.19;7391393;19;20015;-70
2022/11/10 01:16:06;;;;;;;4.40;1.25;;;;;;;10.42;82.51;101034.56;7391667;19;20426;-71
2022/11/10 01:18:34;;;;;;;3.22;1.20;;;;;;;10.44;82.91;101040.66;7392438;19;20082;-71
2022/11/10 01:21:03;;;;;;;4.20;1.33;;;;;;;10.45;82.45;101042.41;7393496;19;20035;-71
2022/11/10 01:23:35;;;;;;;3.33;1.40;;;;;;;10.43;81.52;101046.78;7392611;19;20415;-70
2022/11/10 01:26:06;;;;;;;6.18;1.40;;;;;;;10.45;81.83;101047.66;7393435;19;20074;-70
2022/11/10 01:28:35;;;;;;;6.30;1.73;;;;;;;10.46;81.74;101048.50;7393274;19;20070;-70
2022/11/10 01:31:06;;;;;;;6.50;1.88;;;;;;;10.46;81.66;101057.22;7396580;19;20094;-70
2022/11/10 01:33:35;;;;;;;3.72;1.20;;;;;;;10.45;81.73;101063.38;7398421;19;20018;-70
2022/11/10 01:36:05;;;;;;;3.80;1.25;;;;;;;10.43;81.37;101060.75;7397856;19;20027;-70
2022/11/10 01:38:37;;;;;;;4.05;1.40;;;;;;;10.41;81.21;101067.81;7398994;19;20010;-70
2022/11/10 01:41:10;;;;;;;4.25;1.05;;;;;;;10.40;81.44;101067.81;7400401;19;20062;-71
2022/11/10 01:43:39;;;;;;;5.50;1.60;;;;;;;10.38;81.35;101072.22;7399849;19;20092;-71
2022/11/10 01:46:09;;;;;;;4.50;1.50;;;;;;;10.38;81.40;101074.84;7400122;19;20078;-71
2022/11/10 01:48:40;;;;;;;5.28;1.50;;;;;;;10.38;81.36;101080.94;7400005;19;20074;-71
2022/11/10 01:51:14;;;;;;;4.97;1.58;;;;;;;10.38;81.28;101082.72;7397617;19;20027;-70
2022/11/10 01:53:51;;;;;;;4.88;1.60;;;;;;;10.38;81.02;101087.97;7398844;19;20544;-70
2022/11/10 01:56:20;;;;;;;7.25;1.98;;;;;;;10.37;81.10;101081.84;7400869;19;20018;-69
2022/11/10 01:58:53;;;;;;;4.05;1.65;;;;;;;10.37;80.79;101092.34;7399692;19;20544;-70
2022/11/10 02:01:22;;;;;;;3.60;1.40;;;;;;;10.38;80.59;101093.22;7400688;19;20010;-70
2022/11/10 02:03:53;;;;;;;3.40;1.00;;;;;;;10.35;80.57;101081.00;7398350;19;20018;-70
2022/11/10 02:06:26;;;;;;;2.97;1.10;;;;;;;10.41;80.08;101093.16;7399478;19;20061;-69
2022/11/10 02:08:58;;;;;;;4.05;1.75;;;;;;;10.44;80.01;101095.75;7400115;19;20083;-70
2022/11/10 02:11:28;;;;;;;3.97;1.27;;;;;;;10.46;79.86;101100.97;7400206;19;20019;-70
2022/11/10 02:13:57;;;;;;;3.83;1.60;;;;;;;10.49;79.69;101095.66;7399019;19;20077;-67
2022/11/10 02:16:25;;;;;;;4.22;1.40;;;;;;;10.50;79.35;101098.28;7399550;19;20077;-68
2022/11/10 02:18:54;;;;;;;5.45;1.10;;;;;;;10.56;79.50;101106.06;7397563;19;20086;-67
2022/11/10 02:21:25;;;;;;;2.85;1.40;;;;;;;10.61;78.88;101111.22;7399365;19;20021;-67
2022/11/10 02:23:55;;;;;;;3.08;1.33;;;;;;;10.64;78.54;101103.31;7398360;19;20015;-67
2022/11/10 02:26:26;;;;;;;6.72;1.40;;;;;;;10.69;78.42;101111.97;7398769;19;20019;-67
2022/11/10 02:28:55;;;;;;;6.88;1.40;;;;;;;10.75;78.35;101118.84;7399725;19;20031;-66
2022/11/10 02:31:23;;;;;;;4.30;1.20;;;;;;;10.78;78.15;101121.44;7398585;19;20086;-68
2022/11/10 02:33:51;;;;;;;3.85;1.67;;;;;;;10.82;78.24;101123.13;7397669;19;20086;-68
2022/11/10 02:36:20;;;;;;;3.13;1.30;;;;;;;10.82;78.19;101115.25;7398740;19;20091;-68
2022/11/10 02:38:51;;;;;;;3.28;1.30;;;;;;;10.86;78.14;101122.16;7397759;19;20082;-68
2022/11/10 02:41:19;;;;;;;9.02;1.60;;;;;;;10.86;78.06;101126.56;7399180;19;20077;-66
2022/11/10 02:43:48;;;;;;;3.80;1.30;;;;;;;10.87;77.93;101134.41;7394340;19;20074;-67
2022/11/10 02:46:17;;;;;;;4.10;1.20;;;;;;;10.85;77.89;101133.56;7396506;19;20082;-67
2022/11/10 02:48:45;;;;;;;6.45;1.52;;;;;;;10.83;77.53;101137.09;7397957;19;20426;-67
2022/11/10 02:51:13;;;;;;;3.85;1.20;;;;;;;10.82;77.57;101127.53;7396256;19;20082;-67
2022/11/10 02:53:42;;;;;;;4.43;1.30;;;;;;;10.82;77.65;101141.50;7395606;19;20422;-67
2022/11/10 02:56:13;;;;;;;3.60;1.35;;;;;;;10.82;77.54;101136.25;7398198;19;20081;-67
2022/11/10 02:58:42;;;;;;;4.97;1.25;;;;;;;10.82;77.14;101140.63;7396331;19;20079;-67
2022/11/10 03:01:10;;;;;;;4.90;1.80;;;;;;;10.83;77.43;101150.22;7397654;19;20434;-67
2022/11/10 03:03:45;;;;;;;5.65;1.65;;;;;;;10.84;76.82;101152.84;7395754;19;20082;-68
2022/11/10 03:06:13;;;;;;;4.60;1.60;;;;;;;10.84;77.14;101155.47;7397829;19;20086;-67
2022/11/10 03:08:42;;;;;;;4.80;1.13;;;;;;;10.86;77.00;101164.16;7397373;19;20011;-67
2022/11/10 03:11:13;;;;;;;9.32;1.83;;;;;;;10.83;76.77;101153.72;7397645;19;20022;-67
2022/11/10 03:13:47;;;;;;;6.47;1.70;;;;;;;10.87;76.95;101165.06;7395771;19;20420;-67
2022/11/10 03:16:16;;;;;;;3.72;1.48;;;;;;;10.86;76.58;101173.81;7397915;19;20105;-67
2022/11/10 03:18:44;;;;;;;6.65;1.40;;;;;;;10.87;76.79;101173.78;7396100;19;20073;-68
2022/11/10 03:21:12;;;;;;;7.50;1.45;;;;;;;10.87;76.78;101176.41;7397917;19;20509;-67
2022/11/10 03:23:41;;;;;;;3.78;1.35;;;;;;;10.88;76.66;101177.25;7395737;19;20074;-67
2022/11/10 03:26:09;;;;;;;6.35;1.58;;;;;;;10.87;76.63;101179.03;7397627;19;20081;-69
2022/11/10 03:28:40;;;;;;;9.98;2.10;;;;;;;10.87;76.27;101186.91;7396801;19;20550;-67
2022/11/10 03:31:09;;;;;;;4.20;1.35;;;;;;;10.87;76.49;101186.91;7397487;19;20022;-67
2022/11/10 03:33:37;;;;;;;8.00;1.40;;;;;;;10.87;76.32;101191.31;7394905;19;20078;-67
2022/11/10 03:36:06;;;;;;;5.28;1.35;;;;;;;10.87;76.52;101194.78;7396644;19;20082;-69
2022/11/10 03:38:35;;;;;;;5.07;1.30;;;;;;;10.86;76.52;101194.81;7394658;19;20078;-68
2022/11/10 03:41:03;;;;;;;3.58;1.25;;;;;;;10.86;76.60;101205.31;7394996;19;20085;-67
2022/11/10 03:43:31;;;;;;;5.13;1.75;;;;;;;10.87;76.53;101207.06;7395378;19;20082;-67
2022/11/10 03:46:02;;;;;;;6.70;1.42;;;;;;;10.86;76.47;101208.78;7396245;19;20524;-67
2022/11/10 03:48:31;;;;;;;6.50;1.60;;;;;;;10.86;76.75;101214.03;7396046;19;20070;-67
2022/11/10 03:50:59;;;;;;;5.18;1.55;;;;;;;10.82;76.75;101204.50;7396415;19;20436;-67
2022/11/10 03:53:28;;;;;;;7.07;1.60;;;;;;;10.82;76.85;101211.50;7392950;19;20086;-67
2022/11/10 03:55:56;;;;;;;5.47;1.50;;;;;;;10.79;76.83;101203.66;7395549;19;20086;-68
2022/11/10 03:58:25;;;;;;;6.80;1.67;;;;;;;10.76;77.01;101212.44;7394441;19;20085;-67
2022/11/10 04:00:54;;;;;;;9.38;1.45;;;;;;;10.71;77.08;101212.50;7395807;19;20078;-68
2022/11/10 04:03:26;;;;;;;4.10;1.35;;;;;;;10.70;77.20;101217.78;7395301;19;20074;-67
2022/11/10 04:15:40;;;;;;;8.20;1.60;;;;;;;10.60;77.63;101227.53;7396350;19;20081;-67
2022/11/10 04:16:45;;;;;;;6.97;1.60;;;;;;;10.55;77.86;101237.25;7395989;19;20361;-68
2022/11/10 04:19:17;;;;;;;5.53;1.50;;;;;;;10.51;78.03;101239.03;7392944;19;20086;-68
2022/11/10 04:21:45;;;;;;;8.60;4.25;;;;;;;10.50;77.97;101250.44;7395457;19;20375;-67
2022/11/10 04:24:13;;;;;;;11.52;4.57;;;;;;;10.47;78.20;101250.47;7393539;19;20090;-67
2022/11/10 04:26:42;;;;;;;6.70;2.10;;;;;;;10.45;78.13;101254.88;7393192;19;20036;-67
2022/11/10 04:29:13;;;;;;;6.57;1.67;;;;;;;10.44;78.30;101261.00;7395143;19;20019;-67
2022/11/10 04:31:43;;;;;;;5.35;1.90;;;;;;;10.42;78.47;101265.41;7395050;19;20433;-67
2022/11/10 04:34:13;;;;;;;6.43;1.80;;;;;;;10.39;78.49;101260.19;7393406;19;20550;-67
2022/11/10 04:36:45;;;;;;;8.48;2.70;;;;;;;10.36;78.68;101265.47;7394537;19;20079;-67
2022/11/10 04:39:14;;;;;;;4.28;1.90;;;;;;;10.33;78.88;101270.72;7394382;19;20078;-67
2022/11/10 04:41:42;;;;;;;6.95;2.00;;;;;;;10.30;78.95;101273.38;7392260;19;20422;-67
2022/11/10 04:44:11;;;;;;;5.63;2.30;;;;;;;10.26;78.97;101273.44;7392960;19;20074;-68
2022/11/10 04:46:42;;;;;;;6.28;2.38;;;;;;;10.24;79.20;101280.44;7394333;19;20481;-68
2022/11/10 04:49:12;;;;;;;9.70;2.33;;;;;;;10.21;79.29;101283.09;7393018;19;20029;-67
2022/11/10 04:51:40;;;;;;;10.77;2.50;;;;;;;10.16;79.43;101284.91;7392115;19;20032;-68
2022/11/10 04:54:13;;;;;;;8.43;2.70;;;;;;;10.12;79.48;101291.06;7392572;19;20035;-68
2022/11/10 04:56:41;;;;;;;6.95;2.67;;;;;;;10.07;79.65;101290.25;7393977;19;20638;-67
2022/11/10 04:59:10;;;;;;;6.72;2.70;;;;;;;10.02;80.04;101290.31;7392103;19;20018;-67
2022/11/10 05:01:39;;;;;;;8.27;2.13;;;;;;;9.99;79.87;101292.09;7394308;19;20018;-67
2022/11/10 05:04:07;;;;;;;6.80;2.70;;;;;;;9.94;79.97;101295.63;7392519;19;20506;-67
2022/11/10 05:06:35;;;;;;;8.95;2.70;;;;;;;9.91;80.16;101292.19;7396038;19;20034;-67
2022/11/10 05:09:04;;;;;;;13.93;6.90;;;;;;;9.87;80.24;101293.97;7401179;19;20035;-68
2022/11/10 05:11:35;;;;;;;6.68;2.55;;;;;;;9.82;80.38;101300.09;7398138;19;20514;-68
2022/11/10 05:14:03;;;;;;;9.32;2.72;;;;;;;9.77;80.67;101295.78;7399387;19;20019;-68
2022/11/10 05:16:32;;;;;;;5.60;2.10;;;;;;;9.74;80.78;101294.94;7401940;19;20022;-66
2022/11/10 05:19:00;;;;;;;8.93;2.45;;;;;;;9.68;80.90;101298.50;7399203;19;20545;-66
2022/11/10 05:21:29;;;;;;;10.13;2.92;;;;;;;9.65;80.95;101308.16;7400661;19;20015;-65
2022/11/10 05:23:58;;;;;;;5.15;2.28;;;;;;;9.60;81.14;101311.69;7398192;19;20014;-66
2022/11/10 05:26:26;;;;;;;8.50;2.05;;;;;;;9.55;81.52;101315.19;7398503;19;20347;-67
2022/11/10 05:28:57;;;;;;;9.02;1.92;;;;;;;9.48;81.47;101301.28;7401043;19;20019;-67
2022/11/10 05:31:26;;;;;;;5.85;2.22;;;;;;;9.45;81.57;101325.75;7400336;19;20545;-66
2022/11/10 05:33:54;;;;;;;6.30;2.15;;;;;;;9.39;81.71;101330.16;7397670;19;20015;-66
2022/11/10 05:36:23;;;;;;;3.95;1.65;;;;;;;9.36;82.04;101333.66;7400441;19;20031;-66
2022/11/10 05:38:51;;;;;;;7.05;2.05;;;;;;;9.32;82.03;101344.19;7399763;19;20015;-67
2022/11/10 05:41:19;;;;;;;7.05;1.88;;;;;;;9.23;82.05;101342.50;7400207;19;20018;-67
2022/11/10 05:43:48;;;;;;;5.93;2.33;;;;;;;9.23;82.26;101355.59;7398956;19;20090;-65
2022/11/10 05:46:19;;;;;;;6.00;2.58;;;;;;;9.19;82.27;101365.22;7399574;19;20082;-66
2022/11/10 05:48:48;;;;;;;7.93;2.65;;;;;;;9.14;82.37;101364.38;7397076;19;20371;-66
2022/11/10 05:51:17;;;;;;;9.73;2.78;;;;;;;9.09;82.54;101368.78;7399242;19;20021;-66
2022/11/10 05:53:45;;;;;;;7.80;3.30;;;;;;;9.04;82.55;101381.03;7398514;19;20082;-66
2022/11/10 05:56:14;;;;;;;8.70;4.75;;;;;;;9.00;82.76;101376.66;7396215;19;20014;-66
2022/11/10 05:58:42;;;;;;;11.73;4.03;;;;;;;8.96;82.75;101391.53;7395850;19;20514;-65
2022/11/10 06:01:11;;;;;;;6.47;3.50;;;;;;;8.91;83.14;101404.63;7396834;19;20082;-65
2022/11/10 06:03:42;;;;;;;8.40;3.38;;;;;;;8.87;83.32;101413.38;7395571;19;20015;-64
2022/11/10 06:06:10;;;;;;;6.63;3.50;;;;;;;8.82;83.34;101415.13;7395286;19;20446;-67
2022/11/10 06:08:39;;;;;;;8.80;4.10;;;;;;;8.79;83.48;101422.97;7398280;19;20035;-67
2022/11/10 06:11:07;;;;;;;8.30;3.28;;;;;;;8.77;83.60;101428.22;7398918;19;20086;-67
2022/11/10 06:13:36;;;;;;;8.57;3.20;;;;;;;8.74;83.66;101430.84;7397959;19;20035;-68
2022/11/10 06:16:04;;;;;;;8.88;4.07;;;;;;;8.72;83.80;101431.72;7398673;19;20026;-66
2022/11/10 06:18:33;;;;;;;13.80;3.42;;;;;;;8.68;83.69;101433.50;7394316;19;20023;-66
2022/11/10 06:21:04;;;;;;;9.98;3.47;;;;;;;8.63;83.75;101436.13;7395236;19;20498;-65
2022/11/10 06:23:32;;;;;;;12.50;3.67;;;;;;;8.62;83.92;101450.06;7397074;19;20035;-66
2022/11/10 06:26:01;;;;;;;8.73;3.60;;;;;;;8.60;84.07;101443.94;7397579;19;20018;-65
2022/11/10 06:28:29;;;;;;;7.00;3.10;;;;;;;8.57;84.12;101443.97;7398283;19;20502;-66
2022/11/10 06:30:59;;;;;;;7.05;3.45;;;;;;;8.55;84.14;101456.19;7396915;19;20155;-66
2022/11/10 06:33:28;;;;;;;14.23;3.40;;;;;;;8.53;84.13;101463.19;7397374;19;20033;-66
2022/11/10 06:35:56;;;;;;;12.35;3.65;;;;;;;8.48;84.16;101465.78;7395423;19;20074;-65
2022/11/10 06:38:27;;;;;;;8.40;2.85;;;;;;;8.47;84.32;101476.25;7398196;19;20067;-66
2022/11/10 06:40:56;;;;;;;8.40;2.58;;;;;;;8.44;84.25;101479.72;7396285;19;20035;-65
2022/11/10 06:43:24;;;;;;;7.15;2.83;;;;;;;8.42;84.52;101486.69;7395109;19;20098;-66
2022/11/10 06:45:52;;;;;;;12.32;4.20;;;;;;;8.39;84.42;101491.03;7395909;19;20023;-66
2022/11/10 06:48:21;;;;;;;8.93;3.67;;;;;;;8.37;84.58;101498.03;7397688;19;20419;-66
2022/11/10 06:50:49;;;;;;;8.73;4.00;;;;;;;8.34;84.77;101509.34;7395427;19;20074;-66
2022/11/10 06:53:18;;;;;;;10.85;3.47;;;;;;;8.32;84.72;101511.94;7395579;19;20014;-66
2022/11/10 06:55:49;;;;;;;8.48;3.60;;;;;;;8.29;85.03;101524.16;7397150;19;20506;-66
2022/11/10 06:58:18;;;;;;;6.55;3.40;;;;;;;8.27;85.04;101531.13;7397267;19;20499;-67
2022/11/10 07:00:47;;;;;;;8.43;3.28;;;;;;;8.24;85.01;101534.63;7395685;19;20014;-66
2022/11/10 07:03:17;;;;;;;9.20;3.50;;;;;;;8.23;85.15;101537.25;7396770;19;20107;-66
2022/11/10 07:05:45;;;;;;;7.85;3.72;;;;;;;8.19;85.29;101531.13;7395119;19;20035;-66
2022/11/10 07:08:16;;;;;;;10.35;4.30;;;;;;;8.17;85.36;101529.41;7397338;19;20014;-67
2022/11/10 07:10:45;;;;;;;8.10;3.60;;;;;;;8.18;85.20;101537.22;7397187;19;20519;-67
2022/11/10 07:13:16;;;;;;;9.07;3.30;;;;;;;8.16;85.32;101549.41;7396591;19;20435;-67
2022/11/10 07:15:45;;;;;;;7.93;3.75;;;;;;;8.17;85.59;101552.91;7396782;19;20485;-66
2022/11/10 07:18:13;;;;;;;8.43;3.60;;;;;;;8.15;85.59;101553.78;7395579;19;20082;-67
2022/11/10 07:20:42;;;;;;;10.00;5.68;;;;;;;8.13;85.66;101557.25;7395555;19;20031;-66
2022/11/10 07:23:10;;;;;;;10.60;6.93;;;;;;;8.15;85.85;101577.31;7396668;19;20112;-65
2022/11/10 07:25:39;;;;;;;13.63;7.40;;;;;;;8.16;85.49;101570.31;7396537;19;20421;-66
2022/11/10 07:28:10;;;;;;;11.85;5.65;;;;;;;8.17;85.75;101574.69;7395907;19;20014;-67
2022/11/10 07:30:41;;;;;;;13.55;4.38;;;;;;;8.19;85.75;101583.41;7394986;19;20066;-67
2022/11/10 07:33:12;;;;;;;6.88;3.35;;;;;;;8.21;85.73;101597.34;7396998;19;20018;-66
2022/11/10 07:35:41;;;;;;;11.30;4.80;;;;;;;8.23;85.63;101592.13;7396010;19;20556;-67
2022/11/10 07:38:13;;;;;;;13.70;4.25;;;;;;;8.25;85.76;101591.28;7396003;19;20035;-66
2022/11/10 07:40:42;;;;;;;11.77;3.95;;;;;;;8.27;85.72;101592.13;7396293;19;20482;-67
2022/11/10 07:43:10;;;;;;;7.32;3.50;;;;;;;8.30;85.82;101594.75;7396235;19;20023;-67
2022/11/10 07:45:41;;;;;;;11.73;3.40;;;;;;;8.30;85.54;101605.22;7394681;19;20084;-66
2022/11/10 07:48:11;;;;;;;9.63;3.83;;;;;;;8.37;85.67;101611.31;7394402;19;20011;-66
2022/11/10 07:50:39;;;;;;;9.23;2.83;;;;;;;8.41;85.49;101609.59;7396703;19;20423;-67
2022/11/10 07:53:09;;;;;;;7.47;2.97;;;;;;;8.46;85.45;101616.59;7395775;19;20027;-67
2022/11/10 07:55:39;;;;;;;6.53;3.20;;;;;;;8.50;85.52;101622.69;7396218;19;20023;-66
2022/11/10 07:58:08;;;;;;;7.97;2.85;;;;;;;8.55;85.38;101628.81;7395895;19;20082;-67
2022/11/10 08:00:38;;;;;;;9.25;3.00;;;;;;;8.60;85.39;101623.59;7393597;19;20428;-66
2022/11/10 08:03:13;;;;;;;9.30;2.63;;;;;;;8.66;85.26;101630.53;7394028;19;20018;-65
2022/11/10 08:05:42;;;;;;;8.70;3.17;;;;;;;8.71;84.92;101642.78;7395302;19;20035;-66
2022/11/10 08:08:10;;;;;;;7.05;2.60;;;;;;;8.77;84.88;101637.53;7395480;19;20018;-67
2022/11/10 08:10:40;;;;;;;8.82;2.95;;;;;;;8.86;84.79;101638.41;7393363;19;20014;-67
2022/11/10 08:13:10;;;;;;;10.48;3.05;;;;;;;8.93;84.86;101637.53;7395020;19;20026;-66
2022/11/10 08:15:40;;;;;;;9.45;3.38;;;;;;;9.00;84.52;101641.91;7393926;19;20037;-66
2022/11/10 08:18:18;;;;;;;16.42;9.65;;;;;;;9.08;84.31;101654.97;7393057;19;20014;-67
2022/11/10 08:20:47;;;;;;;15.15;9.35;;;;;;;9.18;84.24;101661.09;7394704;19;20022;-66
2022/11/10 08:23:16;;;;;;;18.40;9.65;;;;;;;9.28;83.99;101662.81;7394677;19;20014;-66
2022/11/10 08:25:45;;;;;;;12.80;5.47;;;;;;;9.34;83.45;101662.81;7394662;19;20038;-66
2022/11/10 08:28:16;;;;;;;8.88;5.65;;;;;;;9.44;83.46;101669.75;7395182;19;20042;-67
2022/11/10 08:30:46;;;;;;;6.60;2.50;;;;;;;9.56;83.02;101668.84;7393349;19;20482;-67
2022/11/10 08:33:19;;;;;;;4.47;2.20;;;;;;;9.66;82.77;101674.09;7392443;19;20015;-68
2022/11/10 08:35:50;;;;;;;6.07;2.03;;;;;;;9.77;82.42;101678.41;7392867;19;20095;-66
2022/11/10 08:38:20;;;;;;;11.27;2.88;;;;;;;9.89;82.08;101674.84;7392912;19;20028;-68
2022/11/10 08:40:49;;;;;;;9.50;3.80;;;;;;;9.97;81.76;101666.09;7396547;19;20023;-67
2022/11/10 08:43:18;;;;;;;16.50;6.68;;;;;;;10.13;81.35;101674.75;7398306;19;20018;-66
2022/11/10 08:45:47;;;;;;;21.13;9.63;;;;;;;10.24;81.08;101672.97;7399214;19;20022;-67
2022/11/10 08:48:20;;;;;;;6.93;2.67;;;;;;;10.35;79.40;101678.13;7402297;19;20031;-68
2022/11/10 08:50:49;;;;;;;5.82;2.10;;;;;;;10.45;80.14;101686.84;7401448;19;20018;-67
2022/11/10 08:53:20;;;;;;;8.77;2.20;;;;;;;10.53;79.49;101682.44;7401145;19;20026;-66
2022/11/10 08:55:48;;;;;;;4.75;2.22;;;;;;;10.62;79.19;101689.38;7399314;19;20039;-66
2022/11/10 08:58:18;;;;;;;7.60;1.75;;;;;;;10.67;77.97;101703.34;7398595;19;20380;-66
2022/11/10 09:00:47;;;;;;;7.53;2.22;;;;;;;10.72;78.16;101696.31;7399018;19;20082;-67
2022/11/10 09:03:21;;;;;;;3.75;2.22;;;;;;;10.76;78.17;101708.53;7401082;19;20019;-67
2022/11/10 09:05:56;;;;;;;10.50;2.07;;;;;;;10.82;77.85;101718.97;7398524;19;20074;-66
2022/11/10 09:08:24;;;;;;;9.27;2.95;;;;;;;10.87;78.15;101721.59;7401552;19;20431;-67
2022/11/10 09:10:59;;;;;;;8.52;1.98;;;;;;;10.90;77.63;101734.66;7401591;19;20097;-67
2022/11/10 09:13:28;;;;;;;8.13;1.80;;;;;;;10.93;77.70;101732.00;7400619;19;20110;-66
2022/11/10 09:15:56;;;;;;;7.97;1.83;;;;;;;10.96;77.60;101736.41;7400596;19;20082;-66
2022/11/10 09:18:27;;;;;;;6.07;1.90;;;;;;;11.01;77.52;101739.84;7397627;19;20094;-66
2022/11/10 09:20:56;;;;;;;8.35;1.92;;;;;;;11.04;77.40;101745.06;7400462;19;20174;-67
2022/11/10 09:23:25;;;;;;;8.75;1.90;;;;;;;11.07;77.23;101748.53;7399549;19;20377;-68
2022/11/10 09:25:55;;;;;;;7.90;1.80;;;;;;;11.10;76.85;101750.28;7397589;19;20019;-68
2022/11/10 09:28:25;;;;;;;5.57;2.35;;;;;;;11.14;76.71;101752.00;7397954;19;20017;-69
2022/11/10 09:30:54;;;;;;;6.90;2.00;;;;;;;11.19;76.58;101751.97;7400407;19;20086;-68
2022/11/10 09:33:22;;;;;;;5.43;1.88;;;;;;;11.23;76.55;101757.19;7399490;19;20082;-68
2022/11/10 09:35:58;;;;;;;10.07;1.70;;;;;;;11.28;76.32;101751.88;7398052;19;20077;-69
2022/11/10 09:38:27;;;;;;;12.07;1.58;;;;;;;11.33;76.00;101751.84;7397564;19;20510;-68
2022/11/10 09:41:02;;;;;;;6.13;2.08;;;;;;;11.34;75.10;101749.19;7399296;19;20021;-70
2022/11/10 09:43:37;;;;;;;4.95;1.63;;;;;;;11.38;75.22;101760.56;7400237;19;20021;-68
2022/11/10 09:46:12;;;;;;;7.55;2.38;;;;;;;11.42;75.64;101754.38;7400927;19;20039;-67
2022/11/10 09:48:47;;;;;;;6.55;2.22;;;;;;;11.45;75.10;101759.63;7397661;19;20028;-67
2022/11/10 09:51:22;;;;;;;7.80;1.85;;;;;;;11.48;75.20;101756.94;7399976;19;20019;-68
2022/11/10 09:53:54;;;;;;;8.88;2.05;;;;;;;11.52;74.92;101750.78;7398653;19;20031;-68
2022/11/10 09:56:35;;;;;;;7.65;2.13;;;;;;;11.57;74.01;101750.75;7397996;19;20082;-68
2022/11/10 09:59:08;;;;;;;5.68;2.15;;;;;;;11.66;74.86;101763.78;7399777;19;20047;-69
2022/11/10 10:01:45;;;;;;;7.82;1.63;;;;;;;11.70;74.22;101768.16;7400004;19;20019;-68
2022/11/10 10:04:30;;;;;;;8.95;1.98;;;;;;;11.76;72.83;101764.56;7398311;19;20040;-68
2022/11/10 10:07:10;;;;;;;9.80;1.88;;;;;;;11.82;73.56;101761.88;7400020;19;20079;-66
2022/11/10 10:10:06;;;;;;;11.25;2.25;;;;;;;11.86;72.31;101760.09;7399731;19;20015;-68
2022/11/10 10:13:01;;;;;;;9.15;1.90;;;;;;;11.86;71.23;101760.94;7399473;19;20423;-66
2022/11/10 10:15:34;;;;;;;7.65;2.00;;;;;;;11.88;72.43;101760.97;7398679;19;20510;-66
2022/11/10 10:18:16;;;;;;;4.57;1.50;;;;;;;11.90;72.35;101764.41;7399613;19;20074;-66
2022/11/10 10:21:14;;;;;;;5.25;1.50;;;;;;;11.93;71.56;101768.78;7395907;19;20427;-66
2022/11/10 10:23:51;;;;;;;8.55;1.48;;;;;;;11.95;71.22;101773.13;7397612;19;20039;-66
2022/11/10 10:26:28;;;;;;;8.40;2.28;;;;;;;11.98;71.81;101773.16;7398751;19;20035;-66
2022/11/10 10:28:59;;;;;;;7.07;1.58;;;;;;;12.00;72.07;101768.72;7396732;19;20019;-66
2022/11/10 10:31:34;;;;;;;6.63;1.75;;;;;;;12.03;71.47;101776.59;7398633;19;20027;-65
2022/11/10 10:34:03;;;;;;;5.40;1.70;;;;;;;12.06;72.01;101775.69;7397294;19;20126;-66
2022/11/10 10:36:33;;;;;;;7.35;1.65;;;;;;;12.08;71.15;101780.91;7396167;19;20454;-66
2022/11/10 10:39:09;;;;;;;8.73;1.90;;;;;;;12.10;70.92;101784.41;7398131;19;20032;-69
2022/11/10 10:41:38;;;;;;;7.82;2.15;;;;;;;12.10;71.24;101780.00;7396830;19;20474;-67
2022/11/10 10:44:12;;;;;;;11.75;2.15;;;;;;;12.11;70.25;101788.78;7396376;19;20485;-65
2022/11/10 10:46:47;;;;;;;8.95;1.75;;;;;;;12.11;70.21;101792.28;7398583;19;20019;-67
2022/11/10 10:49:20;;;;;;;11.15;2.28;;;;;;;12.12;70.98;101796.66;7398905;19;20011;-67
2022/11/10 10:51:49;;;;;;;7.35;2.25;;;;;;;12.15;71.21;101790.50;7397607;19;20441;-67
2022/11/10 10:54:29;;;;;;;6.82;1.90;;;;;;;12.16;70.06;101794.88;7395298;19;20014;-67
2022/11/10 10:57:17;;;;;;;6.95;1.50;;;;;;;12.19;70.73;101787.78;7397542;19;20436;-68
2022/11/10 10:59:45;;;;;;;5.85;2.05;;;;;;;12.20;70.80;101792.16;7397986;19;20026;-66
2022/11/10 11:02:27;;;;;;;9.57;1.75;;;;;;;12.20;69.34;101805.31;7396230;19;20070;-67
2022/11/10 11:05:13;;;;;;;9.00;2.50;;;;;;;12.22;69.99;101800.91;7395004;19;20018;-69
2022/11/10 11:07:42;;;;;;;8.18;1.50;;;;;;;12.23;70.19;101799.16;7397332;19;20083;-67
2022/11/10 11:10:25;;;;;;;5.68;1.88;;;;;;;12.26;69.35;101787.72;7397028;19;20426;-67
2022/11/10 11:12:54;;;;;;;6.70;1.80;;;;;;;12.27;70.40;101787.72;7396884;19;20018;-68
2022/11/10 11:15:27;;;;;;;6.35;2.53;;;;;;;12.31;70.46;101796.41;7397221;19;20035;-66
2022/11/10 11:17:57;;;;;;;11.40;2.55;;;;;;;12.34;70.48;101799.91;7395851;19;20021;-65
2022/11/10 11:20:33;;;;;;;7.70;1.75;;;;;;;12.36;69.48;101784.09;7394757;19;20033;-65
2022/11/10 11:23:08;;;;;;;9.63;1.40;;;;;;;12.41;69.61;101805.09;7394458;19;20498;-66
2022/11/10 11:25:44;;;;;;;9.23;1.67;;;;;;;12.46;68.94;101798.00;7397198;19;20014;-67
2022/11/10 11:28:20;;;;;;;5.35;1.65;;;;;;;12.52;69.53;101806.72;7395651;19;20035;-67
2022/11/10 11:31:00;;;;;;;9.07;1.40;;;;;;;12.58;69.79;101805.75;7395347;19;20030;-67
2022/11/10 11:33:42;;;;;;;8.50;2.33;;;;;;;12.63;68.41;101803.06;7396280;19;20082;-67
2022/11/10 11:36:21;;;;;;;9.70;1.90;;;;;;;12.68;68.24;101798.59;7396714;19;20389;-66
2022/11/10 11:38:59;;;;;;;6.30;1.40;;;;;;;12.75;68.59;101804.66;7394491;19;20027;-66
2022/11/10 11:41:40;;;;;;;8.75;1.65;;;;;;;12.78;67.82;101801.97;7395089;19;20074;-67
2022/11/10 11:44:24;;;;;;;9.27;1.67;;;;;;;12.86;68.72;101800.97;7395415;19;20023;-67
2022/11/10 11:47:15;;;;;;;7.65;1.50;;;;;;;12.94;67.97;101797.34;7396763;19;20022;-68
2022/11/10 11:49:58;;;;;;;6.85;1.42;;;;;;;12.99;68.00;101795.50;7396133;19;20078;-67
2022/11/10 11:52:36;;;;;;;12.13;1.75;;;;;;;13.03;67.12;101798.09;7396729;19;20031;-67
2022/11/10 11:55:19;;;;;;;10.20;1.77;;;;;;;13.08;66.43;101799.78;7394308;19;20017;-68